Weather at California Redwood Coast-Humboldt County Airport

Public forecast

Using degrees Fahrenheit for public forecast. Weather courtesy of forecast.io.

Current aviation weather report (METAR) for California Redwood Coast-Humboldt County Airport

Report is more than 6 hours old.

2022/11/14 14:53 (retrieved 2 years ago)

KACV 141453Z AUTO 10005KT 10SM CLR 02/01 A3016 RMK AO2 SLP220 T00170006 50006

Aviation forecast (TAF) for California Redwood Coast-Humboldt County Airport

Forecast is more than 12 hours old.

2023/02/22 18:54 (retrieved 1 year ago)

TAF KACV 221751Z 2218/2318 VRB05KT 4SM -RASN BR SCT015 BKN035 FM222100 31012KT 4SM -SHRA SCT025 BKN035 FM230400 14008G14KT 4SM -SHSN OVC025 TEMPO 2311/2315 2SM -SHSN OVC015 FM231600 24010KT 4SM -SHSN BR OVC025